sensor_id;sensor_type;location;lat;lon;timestamp;pressure;altitude;pressure_sealevel;temperature;humidity
5350;BME280;2697;42.144;24.794;2024-03-08T00:01:47;25103.56;;;7.94;100.00
5350;BME280;2697;42.144;24.794;2024-03-08T00:04:13;26776.72;;;7.76;100.00
5350;BME280;2697;42.144;24.794;2024-03-08T00:06:38;26434.03;;;7.61;100.00
5350;BME280;2697;42.144;24.794;2024-03-08T00:09:05;24421.16;;;7.70;100.00
5350;BME280;2697;42.144;24.794;2024-03-08T00:11:33;29135.38;;;7.84;100.00
5350;BME280;2697;42.144;24.794;2024-03-08T00:13:59;32835.19;;;7.77;100.00
5350;BME280;2697;42.144;24.794;2024-03-08T00:16:24;27455.97;;;7.90;100.00
5350;BME280;2697;42.144;24.794;2024-03-08T00:18:49;31837.81;;;8.01;100.00
5350;BME280;2697;42.144;24.794;2024-03-08T00:21:15;34851.75;;;7.69;100.00
5350;BME280;2697;42.144;24.794;2024-03-08T00:23:40;31832.88;;;7.92;100.00
5350;BME280;2697;42.144;24.794;2024-03-08T00:26:06;43985.78;;;8.05;100.00
5350;BME280;2697;42.144;24.794;2024-03-08T00:28:32;40907.22;;;7.49;100.00
5350;BME280;2697;42.144;24.794;2024-03-08T00:30:59;38895.03;;;7.66;100.00
5350;BME280;2697;42.144;24.794;2024-03-08T00:33:25;41621.47;;;8.05;100.00
5350;BME280;2697;42.144;24.794;2024-03-08T00:35:50;42285.38;;;7.89;100.00
5350;BME280;2697;42.144;24.794;2024-03-08T00:38:16;40927.19;;;7.78;100.00
5350;BME280;2697;42.144;24.794;2024-03-08T00:40:41;42630.34;;;7.99;100.00
5350;BME280;2697;42.144;24.794;2024-03-08T00:43:07;40604.28;;;7.99;100.00
5350;BME280;2697;42.144;24.794;2024-03-08T00:45:32;42288.63;;;7.93;100.00
5350;BME280;2697;42.144;24.794;2024-03-08T00:47:58;38227.13;;;7.76;100.00
5350;BME280;2697;42.144;24.794;2024-03-08T00:50:23;36537.72;;;7.70;100.00
5350;BME280;2697;42.144;24.794;2024-03-08T00:52:48;36192.25;;;7.57;100.00
5350;BME280;2697;42.144;24.794;2024-03-08T00:55:14;36881.16;;;7.81;100.00
5350;BME280;2697;42.144;24.794;2024-03-08T00:57:40;38224.50;;;7.72;100.00
5350;BME280;2697;42.144;24.794;2024-03-08T01:00:06;38565.38;;;7.78;100.00
5350;BME280;2697;42.144;24.794;2024-03-08T01:02:37;37550.06;;;7.72;100.00
5350;BME280;2697;42.144;24.794;2024-03-08T01:05:02;41619.34;;;8.02;100.00
5350;BME280;2697;42.144;24.794;2024-03-08T01:07:29;41592.66;;;7.64;100.00
5350;BME280;2697;42.144;24.794;2024-03-08T01:09:55;39915.84;;;7.79;100.00
5350;BME280;2697;42.144;24.794;2024-03-08T01:12:21;42628.91;;;7.97;100.00
5350;BME280;2697;42.144;24.794;2024-03-08T01:14:47;48709.84;;;7.93;100.00
5350;BME280;2697;42.144;24.794;2024-03-08T01:17:13;43961.75;;;7.72;100.00
5350;BME280;2697;42.144;24.794;2024-03-08T01:19:39;39574.03;;;7.72;100.00
5350;BME280;2697;42.144;24.794;2024-03-08T01:22:04;40579.97;;;7.63;100.00
5350;BME280;2697;42.144;24.794;2024-03-08T01:24:30;44322.19;;;8.03;100.00
5350;BME280;2697;42.144;24.794;2024-03-08T01:26:55;45321.03;;;7.83;100.00
5350;BME280;2697;42.144;24.794;2024-03-08T01:29:20;49748.91;;;8.22;100.00
5350;BME280;2697;42.144;24.794;2024-03-08T01:31:46;47010.13;;;7.82;100.00
5350;BME280;2697;42.144;24.794;2024-03-08T01:34:12;39911.03;;;7.72;100.00
5350;BME280;2697;42.144;24.794;2024-03-08T01:36:38;36536.16;;;7.68;100.00
5350;BME280;2697;42.144;24.794;2024-03-08T01:39:03;33838.75;;;7.65;100.00
5350;BME280;2697;42.144;24.794;2024-03-08T01:41:33;32497.28;;;7.75;100.00
5350;BME280;2697;42.144;24.794;2024-03-08T01:43:59;31825.47;;;7.78;100.00
5350;BME280;2697;42.144;24.794;2024-03-08T01:46:24;31826.28;;;7.80;100.00
5350;BME280;2697;42.144;24.794;2024-03-08T01:48:50;31824.09;;;7.76;100.00
5350;BME280;2697;42.144;24.794;2024-03-08T01:51:16;32502.03;;;7.84;100.00
5350;BME280;2697;42.144;24.794;2024-03-08T01:53:42;34515.44;;;7.70;100.00
5350;BME280;2697;42.144;24.794;2024-03-08T01:56:11;34528.19;;;7.92;100.00
5350;BME280;2697;42.144;24.794;2024-03-08T01:58:38;35529.34;;;7.75;100.00
5350;BME280;2697;42.144;24.794;2024-03-08T02:01:04;34852.34;;;7.70;100.00
5350;BME280;2697;42.144;24.794;2024-03-08T02:03:30;33168.88;;;7.71;100.00
5350;BME280;2697;42.144;24.794;2024-03-08T02:05:57;32148.06;;;7.52;100.00
5350;BME280;2697;42.144;24.794;2024-03-08T02:08:24;31148.84;;;7.72;100.00
5350;BME280;2697;42.144;24.794;2024-03-08T02:10:50;31482.53;;;7.66;100.00
5350;BME280;2697;42.144;24.794;2024-03-08T02:13:16;31480.91;;;7.63;100.00
5350;BME280;2697;42.144;24.794;2024-03-08T02:15:57;29793.81;;;7.55;100.00
5350;BME280;2697;42.144;24.794;2024-03-08T02:18:28;28442.47;;;7.42;100.00
5350;BME280;2697;42.144;24.794;2024-03-08T02:20:57;26426.72;;;7.45;100.00
5350;BME280;2697;42.144;24.794;2024-03-08T02:23:23;26766.03;;;7.52;100.00
5350;BME280;2697;42.144;24.794;2024-03-08T02:25:50;28107.69;;;7.46;100.00
5350;BME280;2697;42.144;24.794;2024-03-08T02:28:16;29123.53;;;7.60;100.00
5350;BME280;2697;42.144;24.794;2024-03-08T02:30:44;29801.78;;;7.70;100.00
5350;BME280;2697;42.144;24.794;2024-03-08T02:33:13;32501.50;;;7.83;100.00
5350;BME280;2697;42.144;24.794;2024-03-08T02:35:39;34852.66;;;7.70;100.00
5350;BME280;2697;42.144;24.794;2024-03-08T02:38:05;33164.03;;;7.63;100.00
5350;BME280;2697;42.144;24.794;2024-03-08T02:40:30;32490.88;;;7.63;100.00
5350;BME280;2697;42.144;24.794;2024-03-08T02:42:57;31474.38;;;7.51;100.00
5350;BME280;2697;42.144;24.794;2024-03-08T02:45:23;30464.88;;;7.51;100.00
5350;BME280;2697;42.144;24.794;2024-03-08T02:47:49;28115.22;;;7.61;100.00
5350;BME280;2697;42.144;24.794;2024-03-08T02:50:15;25410.66;;;7.27;100.00
5350;BME280;2697;42.144;24.794;2024-03-08T02:52:42;20377.69;;;7.33;100.00
5350;BME280;2697;42.144;24.794;2024-03-08T02:55:07;18361.56;;;7.21;100.00
5350;BME280;2697;42.144;24.794;2024-03-08T02:57:35;14004.97;;;7.18;100.00
5350;BME280;2697;42.144;24.794;2024-03-08T03:00:02;11326.06;;;7.13;100.00
5350;BME280;2697;42.144;24.794;2024-03-08T03:02:27;8984.38;;;7.12;100.00
5350;BME280;2697;42.144;24.794;2024-03-08T03:04:52;7313.19;;;7.15;100.00
5350;BME280;2697;42.144;24.794;2024-03-08T03:07:18;7980.72;;;7.08;100.00
5350;BME280;2697;42.144;24.794;2024-03-08T03:09:44;6980.00;;;7.24;100.00
5350;BME280;2697;42.144;24.794;2024-03-08T03:12:10;8649.34;;;7.08;100.00
5350;BME280;2697;42.144;24.794;2024-03-08T03:14:35;7645.13;;;6.99;100.00
5350;BME280;2697;42.144;24.794;2024-03-08T03:17:04;5305.38;;;6.90;100.00
5350;BME280;2697;42.144;24.794;2024-03-08T03:19:30;4304.66;;;7.01;100.00
5350;BME280;2697;42.144;24.794;2024-03-08T03:21:55;3969.34;;;6.84;100.00
5350;BME280;2697;42.144;24.794;2024-03-08T03:24:21;2968.47;;;6.91;100.00
5350;BME280;2697;42.144;24.794;2024-03-08T03:26:46;1967.28;;;6.90;100.00
5350;BME280;2697;42.144;24.794;2024-03-08T03:29:14;1300.19;;;6.94;100.00
5350;BME280;2697;42.144;24.794;2024-03-08T03:31:40;632.94;;;6.93;100.00
5350;BME280;2697;42.144;24.794;2024-03-08T03:34:06;-34.59;;;6.68;100.00
5350;BME280;2697;42.144;24.794;2024-03-08T03:36:34;-701.19;;;6.82;100.00
5350;BME280;2697;42.144;24.794;2024-03-08T03:39:00;-1367.91;;;6.81;100.00
5350;BME280;2697;42.144;24.794;2024-03-08T03:41:38;-2034.63;;;6.89;100.00
5350;BME280;2697;42.144;24.794;2024-03-08T03:44:04;-2701.66;;;7.07;100.00
5350;BME280;2697;42.144;24.794;2024-03-08T03:46:30;-2034.75;;;6.98;100.00
5350;BME280;2697;42.144;24.794;2024-03-08T03:48:56;-2034.63;;;6.88;100.00
5350;BME280;2697;42.144;24.794;2024-03-08T03:51:21;-2034.91;;;7.07;100.00
5350;BME280;2697;42.144;24.794;2024-03-08T03:53:47;-1701.44;;;7.05;100.00
5350;BME280;2697;42.144;24.794;2024-03-08T03:56:12;-1034.56;;;6.85;100.00
5350;BME280;2697;42.144;24.794;2024-03-08T03:58:38;-2034.44;;;6.76;100.00
5350;BME280;2697;42.144;24.794;2024-03-08T04:01:05;-2701.00;;;6.81;100.00
5350;BME280;2697;42.144;24.794;2024-03-08T04:03:30;-3367.66;;;6.89;100.00
5350;BME280;2697;42.144;24.794;2024-03-08T04:05:56;-2700.78;;;6.73;100.00
5350;BME280;2697;42.144;24.794;2024-03-08T04:08:22;-3368.34;;;7.08;100.00
5350;BME280;2697;42.144;24.794;2024-03-08T04:10:49;-1701.44;;;7.03;100.00
5350;BME280;2697;42.144;24.794;2024-03-08T04:13:14;-367.53;;;7.02;100.00
5350;BME280;2697;42.144;24.794;2024-03-08T04:15:41;-34.00;;;7.01;100.00
5350;BME280;2697;42.144;24.794;2024-03-08T04:18:08;1300.72;;;7.07;100.00
5350;BME280;2697;42.144;24.794;2024-03-08T04:20:34;2635.25;;;6.99;100.00
5350;BME280;2697;42.144;24.794;2024-03-08T04:22:59;3969.22;;;6.83;100.00
5350;BME280;2697;42.144;24.794;2024-03-08T04:25:24;5304.66;;;6.83;100.00
5350;BME280;2697;42.144;24.794;2024-03-08T04:27:50;6303.41;;;6.57;100.00
5350;BME280;2697;42.144;24.794;2024-03-08T04:30:17;4636.50;;;6.79;100.00
5350;BME280;2697;42.144;24.794;2024-03-08T04:32:43;5636.41;;;6.63;100.00
5350;BME280;2697;42.144;24.794;2024-03-08T04:35:09;4634.84;;;6.61;100.00
5350;BME280;2697;42.144;24.794;2024-03-08T04:37:34;4968.59;;;6.61;100.00
5350;BME280;2697;42.144;24.794;2024-03-08T04:40:00;5636.31;;;6.62;100.00
5350;BME280;2697;42.144;24.794;2024-03-08T04:42:26;6304.03;;;6.62;100.00
5350;BME280;2697;42.144;24.794;2024-03-08T04:44:54;6301.75;;;6.43;100.00
5350;BME280;2697;42.144;24.794;2024-03-08T04:47:20;5969.03;;;6.52;100.00
5350;BME280;2697;42.144;24.794;2024-03-08T04:49:45;5302.53;;;6.63;100.00
5350;BME280;2697;42.144;24.794;2024-03-08T04:52:11;5302.44;;;6.62;100.00
5350;BME280;2697;42.144;24.794;2024-03-08T04:54:37;5635.25;;;6.52;100.00
5350;BME280;2697;42.144;24.794;2024-03-08T04:57:02;6302.50;;;6.49;100.00
5350;BME280;2697;42.144;24.794;2024-03-08T04:59:29;6305.88;;;6.77;100.00
5350;BME280;2697;42.144;24.794;2024-03-08T05:01:55;9646.25;;;6.73;100.00
5350;BME280;2697;42.144;24.794;2024-03-08T05:04:21;10982.63;;;6.69;100.00
5350;BME280;2697;42.144;24.794;2024-03-08T05:06:47;11317.81;;;6.73;100.00
5350;BME280;2697;42.144;24.794;2024-03-08T05:09:13;10314.22;;;6.70;100.00
5350;BME280;2697;42.144;24.794;2024-03-08T05:11:45;10980.13;;;6.56;100.00
5350;BME280;2697;42.144;24.794;2024-03-08T05:14:12;9646.53;;;6.74;100.00
5350;BME280;2697;42.144;24.794;2024-03-08T05:16:45;9311.78;;;6.71;100.00
5350;BME280;2697;42.144;24.794;2024-03-08T05:19:14;8307.97;;;6.63;100.00
5350;BME280;2697;42.144;24.794;2024-03-08T05:21:42;8308.69;;;6.67;100.00
5350;BME280;2697;42.144;24.794;2024-03-08T05:24:08;6973.16;;;6.72;100.00
5350;BME280;2697;42.144;24.794;2024-03-08T05:26:35;7306.53;;;6.67;100.00
5350;BME280;2697;42.144;24.794;2024-03-08T05:29:00;6970.94;;;6.55;100.00
5350;BME280;2697;42.144;24.794;2024-03-08T05:31:26;4633.94;;;6.51;100.00
5350;BME280;2697;42.144;24.794;2024-03-08T05:33:51;4633.56;;;6.47;100.00
5350;BME280;2697;42.144;24.794;2024-03-08T05:36:19;3300.06;;;6.61;100.00
5350;BME280;2697;42.144;24.794;2024-03-08T05:38:44;3634.03;;;6.65;100.00
5350;BME280;2697;42.144;24.794;2024-03-08T05:41:10;4632.41;;;6.35;100.00
5350;BME280;2697;42.144;24.794;2024-03-08T05:43:37;3632.38;;;6.43;100.00
5350;BME280;2697;42.144;24.794;2024-03-08T05:46:03;1965.56;;;6.56;100.00
5350;BME280;2697;42.144;24.794;2024-03-08T05:48:29;1966.06;;;6.66;100.00
5350;BME280;2697;42.144;24.794;2024-03-08T05:50:57;3301.06;;;6.74;100.00
5350;BME280;2697;42.144;24.794;2024-03-08T05:53:22;4636.19;;;6.75;100.00
5350;BME280;2697;42.144;24.794;2024-03-08T05:55:48;3968.91;;;6.79;100.00
5350;BME280;2697;42.144;24.794;2024-03-08T05:58:14;4302.31;;;6.75;100.00
5350;BME280;2697;42.144;24.794;2024-03-08T06:00:40;4636.28;;;6.76;100.00
5350;BME280;2697;42.144;24.794;2024-03-08T06:03:05;4637.75;;;6.92;100.00
5350;BME280;2697;42.144;24.794;2024-03-08T06:05:30;5639.06;;;6.87;100.00
5350;BME280;2697;42.144;24.794;2024-03-08T06:07:56;5636.69;;;6.66;100.00
5350;BME280;2697;42.144;24.794;2024-03-08T06:10:22;4636.50;;;6.79;100.00
5350;BME280;2697;42.144;24.794;2024-03-08T06:12:47;3969.53;;;6.86;100.00
5350;BME280;2697;42.144;24.794;2024-03-08T06:15:12;4972.28;;;6.98;100.00
5350;BME280;2697;42.144;24.794;2024-03-08T06:17:41;6639.88;;;6.77;100.00
5350;BME280;2697;42.144;24.794;2024-03-08T06:20:07;8308.59;;;6.67;100.00
5350;BME280;2697;42.144;24.794;2024-03-08T06:22:41;8645.28;;;6.83;100.00
5350;BME280;2697;42.144;24.794;2024-03-08T06:25:10;9983.81;;;6.91;100.00
5350;BME280;2697;42.144;24.794;2024-03-08T06:27:41;10651.25;;;6.84;100.00
5350;BME280;2697;42.144;24.794;2024-03-08T06:30:10;10315.44;;;6.76;100.00
5350;BME280;2697;42.144;24.794;2024-03-08T06:32:38;10318.22;;;6.91;100.00
5350;BME280;2697;42.144;24.794;2024-03-08T06:35:05;10986.06;;;6.86;100.00
5350;BME280;2697;42.144;24.794;2024-03-08T06:37:34;10317.44;;;6.87;100.00
5350;BME280;2697;42.144;24.794;2024-03-08T06:40:00;9646.44;;;6.74;100.00
5350;BME280;2697;42.144;24.794;2024-03-08T06:42:27;7977.09;;;6.84;100.00
5350;BME280;2697;42.144;24.794;2024-03-08T06:44:53;7976.25;;;6.78;100.00
5350;BME280;2697;42.144;24.794;2024-03-08T06:47:21;8309.69;;;6.74;100.00
5350;BME280;2697;42.144;24.794;2024-03-08T06:49:46;7309.81;;;6.91;100.00
5350;BME280;2697;42.144;24.794;2024-03-08T06:52:12;8981.88;;;6.97;100.00
5350;BME280;2697;42.144;24.794;2024-03-08T06:54:37;10320.00;;;7.01;100.00
5350;BME280;2697;42.144;24.794;2024-03-08T06:57:03;10321.81;;;7.10;100.00
5350;BME280;2697;42.144;24.794;2024-03-08T06:59:29;11322.56;;;6.96;100.00
5350;BME280;2697;42.144;24.794;2024-03-08T07:01:54;11660.38;;;7.12;100.00
5350;BME280;2697;42.144;24.794;2024-03-08T07:04:20;13331.22;;;7.01;100.00
5350;BME280;2697;42.144;24.794;2024-03-08T07:06:47;13669.25;;;7.14;100.00
5350;BME280;2697;42.144;24.794;2024-03-08T07:09:15;15675.16;;;7.02;100.00
5350;BME280;2697;42.144;24.794;2024-03-08T07:11:42;16344.63;;;7.00;100.00
5350;BME280;2697;42.144;24.794;2024-03-08T07:14:08;16017.34;;;7.28;100.00
5350;BME280;2697;42.144;24.794;2024-03-08T07:16:34;20034.84;;;7.11;100.00
5350;BME280;2697;42.144;24.794;2024-03-08T07:19:04;23057.72;;;7.21;100.00
5350;BME280;2697;42.144;24.794;2024-03-08T07:21:31;27758.03;;;7.17;100.00
5350;BME280;2697;42.144;24.794;2024-03-08T07:23:57;29778.66;;;7.25;100.00
5350;BME280;2697;42.144;24.794;2024-03-08T07:26:25;30795.50;;;7.40;100.00
5350;BME280;2697;42.144;24.794;2024-03-08T07:28:50;29792.78;;;7.53;100.00
5350;BME280;2697;42.144;24.794;2024-03-08T07:31:16;32488.91;;;7.60;100.00
5350;BME280;2697;42.144;24.794;2024-03-08T07:33:48;37562.31;;;7.91;100.00
5350;BME280;2697;42.144;24.794;2024-03-08T07:36:15;48731.44;;;8.19;100.00
5350;BME280;2697;42.144;24.794;2024-03-08T07:38:41;62641.91;;;8.31;100.00
5350;BME280;2697;42.144;24.794;2024-03-08T07:41:06;82063.09;;;8.41;100.00
5350;BME280;2697;42.144;24.794;2024-03-08T07:43:31;91585.97;;;8.10;100.00
5350;BME280;2697;42.144;24.794;2024-03-08T07:45:58;88143.50;;;7.94;100.00
5350;BME280;2697;42.144;24.794;2024-03-08T07:48:23;98406.75;;;7.95;100.00
5350;BME280;2697;42.144;24.794;2024-03-08T07:50:48;79962.50;;;8.01;100.00
5350;BME280;2697;42.144;24.794;2024-03-08T07:53:15;75561.25;;;8.24;100.00
5350;BME280;2697;42.144;24.794;2024-03-08T07:55:40;71825.50;;;8.33;100.00
5350;BME280;2697;42.144;24.794;2024-03-08T07:58:07;79631.00;;;8.08;100.00
5350;BME280;2697;42.144;24.794;2024-03-08T08:00:36;81010.25;;;8.19;100.00
5350;BME280;2697;42.144;24.794;2024-03-08T08:03:02;97412.41;;;8.15;100.00
5350;BME280;2697;42.144;24.794;2024-03-08T08:05:27;91626.34;;;8.37;100.00
5350;BME280;2697;42.144;24.794;2024-03-08T08:07:53;111913.06;;;8.63;100.00
5350;BME280;2697;42.144;24.794;2024-03-08T08:10:18;120849.81;;;8.54;100.00
5350;BME280;2697;42.144;24.794;2024-03-08T08:12:49;121860.34;;;8.43;100.00
5350;BME280;2697;42.144;24.794;2024-03-08T08:15:15;111822.94;;;8.15;100.00
5350;BME280;2697;42.144;24.794;2024-03-08T08:17:42;112941.41;;;8.61;100.00
5350;BME280;2697;42.144;24.794;2024-03-08T08:20:08;132254.81;;;8.61;100.00
5350;BME280;2697;42.144;24.794;2024-03-08T08:22:34;133349.75;;;8.87;100.00
5350;BME280;2697;42.144;24.794;2024-03-08T08:24:59;136831.59;;;8.96;100.00
5350;BME280;2697;42.144;24.794;2024-03-08T08:27:25;153503.47;;;8.70;100.00
5350;BME280;2697;42.144;24.794;2024-03-08T08:29:51;154749.22;;;8.47;100.00
5350;BME280;2697;42.144;24.794;2024-03-08T08:32:16;151379.88;;;8.57;100.00
5350;BME280;2697;42.144;24.794;2024-03-08T08:34:44;153281.47;;;8.64;100.00
5350;BME280;2697;42.144;24.794;2024-03-08T08:37:09;135015.72;;;8.58;100.00
5350;BME280;2697;42.144;24.794;2024-03-08T08:39:35;129125.97;;;8.52;100.00
5350;BME280;2697;42.144;24.794;2024-03-08T08:42:00;144349.25;;;8.51;100.00
5350;BME280;2697;42.144;24.794;2024-03-08T08:44:28;133993.94;;;8.65;100.00
5350;BME280;2697;42.144;24.794;2024-03-08T08:46:53;154851.75;;;8.87;100.00
5350;BME280;2697;42.144;24.794;2024-03-08T08:49:19;154851.75;;;8.87;100.00
5350;BME280;2697;42.144;24.794;2024-03-08T08:51:52;154791.25;;;8.63;100.00
5350;BME280;2697;42.144;24.794;2024-03-08T08:54:18;154833.34;;;8.79;100.00
5350;BME280;2697;42.144;24.794;2024-03-08T08:56:45;154854.38;;;8.88;100.00
5350;BME280;2697;42.144;24.794;2024-03-08T08:59:12;154885.94;;;9.00;100.00
5350;BME280;2697;42.144;24.794;2024-03-08T09:01:42;154897.78;;;9.04;100.00
5350;BME280;2697;42.144;24.794;2024-03-08T09:04:07;155092.50;;;9.80;100.00
5350;BME280;2697;42.144;24.794;2024-03-08T09:06:33;155067.50;;;9.70;100.00
5350;BME280;2697;42.144;24.794;2024-03-08T09:08:58;155054.31;;;9.65;100.00
5350;BME280;2697;42.144;24.794;2024-03-08T09:11:24;155038.56;;;9.59;100.00
5350;BME280;2697;42.144;24.794;2024-03-08T09:13:51;155139.88;;;9.98;100.00
5350;BME280;2697;42.144;24.794;2024-03-08T09:16:17;155220.19;;;10.29;100.00
5350;BME280;2697;42.144;24.794;2024-03-08T09:18:42;155158.31;;;10.05;100.00
5350;BME280;2697;42.144;24.794;2024-03-08T09:21:07;155008.25;;;9.47;100.00
5350;BME280;2697;42.144;24.794;2024-03-08T09:23:35;155089.88;;;9.79;100.00
5350;BME280;2697;42.144;24.794;2024-03-08T09:26:01;155072.75;;;9.72;100.00
5350;BME280;2697;42.144;24.794;2024-03-08T09:28:28;155042.50;;;9.60;100.00
5350;BME280;2697;42.144;24.794;2024-03-08T09:30:54;155010.88;;;9.48;100.00
5350;BME280;2697;42.144;24.794;2024-03-08T09:33:20;155170.13;;;10.10;100.00
5350;BME280;2697;42.144;24.794;2024-03-08T09:35:46;155170.13;;;10.10;100.00
5350;BME280;2697;42.144;24.794;2024-03-08T09:38:13;155141.19;;;9.98;100.00
5350;BME280;2697;42.144;24.794;2024-03-08T09:40:43;155245.22;;;10.39;100.00
5350;BME280;2697;42.144;24.794;2024-03-08T09:43:09;155338.69;;;10.75;100.00
5350;BME280;2697;42.144;24.794;2024-03-08T09:45:37;155156.94;;;10.05;100.00
5350;BME280;2697;42.144;24.794;2024-03-08T09:48:12;155289.97;;;10.56;100.00
5350;BME280;2697;42.144;24.794;2024-03-08T09:50:42;155207.06;;;10.24;100.00
5350;BME280;2697;42.144;24.794;2024-03-08T09:53:08;155199.06;;;10.21;100.00
5350;BME280;2697;42.144;24.794;2024-03-08T09:55:36;155359.78;;;10.83;100.00
5350;BME280;2697;42.144;24.794;2024-03-08T09:58:05;155301.81;;;10.61;100.00
5350;BME280;2697;42.144;24.794;2024-03-08T10:00:49;155371.59;;;10.88;100.00
5350;BME280;2697;42.144;24.794;2024-03-08T10:03:14;155330.81;;;10.72;100.00
5350;BME280;2697;42.144;24.794;2024-03-08T10:05:43;155376.91;;;10.90;100.00
5350;BME280;2697;42.144;24.794;2024-03-08T10:08:09;155280.78;;;10.52;100.00
5350;BME280;2697;42.144;24.794;2024-03-08T10:10:36;155338.69;;;10.75;100.00
5350;BME280;2697;42.144;24.794;2024-03-08T10:13:06;155333.44;;;10.73;100.00
5350;BME280;2697;42.144;24.794;2024-03-08T10:15:31;155311.06;;;10.64;100.00
5350;BME280;2697;42.144;24.794;2024-03-08T10:17:58;155209.69;;;10.25;100.00
5350;BME280;2697;42.144;24.794;2024-03-08T10:20:24;155270.22;;;10.48;100.00
5350;BME280;2697;42.144;24.794;2024-03-08T10:22:50;155317.63;;;10.67;100.00
5350;BME280;2697;42.144;24.794;2024-03-08T10:25:16;155387.44;;;10.94;100.00
5350;BME280;2697;42.144;24.794;2024-03-08T10:27:42;155486.22;;;11.32;100.00
5350;BME280;2697;42.144;24.794;2024-03-08T10:30:14;155365.03;;;10.85;100.00
5350;BME280;2697;42.144;24.794;2024-03-08T10:32:41;155261.03;;;10.45;100.00
5350;BME280;2697;42.144;24.794;2024-03-08T10:35:09;155297.88;;;10.59;100.00
5350;BME280;2697;42.144;24.794;2024-03-08T10:37:44;155283.41;;;10.53;100.00
5350;BME280;2697;42.144;24.794;2024-03-08T10:40:17;155309.75;;;10.64;100.00
5350;BME280;2697;42.144;24.794;2024-03-08T10:43:01;155305.81;;;10.62;100.00
5350;BME280;2697;42.144;24.794;2024-03-08T10:45:37;155351.91;;;10.80;100.00
5350;BME280;2697;42.144;24.794;2024-03-08T10:48:10;155382.19;;;10.92;100.00
5350;BME280;2697;42.144;24.794;2024-03-08T10:50:41;155375.59;;;10.89;100.00
5350;BME280;2697;42.144;24.794;2024-03-08T10:53:13;155383.50;;;10.92;100.00
5350;BME280;2697;42.144;24.794;2024-03-08T10:55:40;155409.81;;;11.02;100.00
5350;BME280;2697;42.144;24.794;2024-03-08T10:58:08;155282.09;;;10.53;100.00
5350;BME280;2697;42.144;24.794;2024-03-08T11:00:35;155245.22;;;10.39;100.00
5350;BME280;2697;42.144;24.794;2024-03-08T11:03:00;155351.91;;;10.80;100.00
5350;BME280;2697;42.144;24.794;2024-03-08T11:05:40;155184.63;;;10.15;100.00
5350;BME280;2697;42.144;24.794;2024-03-08T11:10:53;155261.03;;;10.45;100.00
5350;BME280;2697;42.144;24.794;2024-03-08T11:13:33;155218.88;;;10.28;100.00
5350;BME280;2697;42.144;24.794;2024-03-08T11:15:59;155262.34;;;10.45;100.00
5350;BME280;2697;42.144;24.794;2024-03-08T11:18:26;155444.06;;;11.16;100.00
5350;BME280;2697;42.144;24.794;2024-03-08T11:20:54;155583.72;;;11.69;100.00
5350;BME280;2697;42.144;24.794;2024-03-08T11:23:22;155553.44;;;11.58;100.00
5350;BME280;2697;42.144;24.794;2024-03-08T11:25:48;155538.94;;;11.52;100.00
5350;BME280;2697;42.144;24.794;2024-03-08T11:28:23;155524.47;;;11.47;100.00
5350;BME280;2697;42.144;24.794;2024-03-08T11:33:25;155533.66;;;11.50;100.00
5350;BME280;2697;42.144;24.794;2024-03-08T11:35:51;155596.94;;;11.75;100.00
5350;BME280;2697;42.144;24.794;2024-03-08T11:38:17;155521.81;;;11.46;100.00
5350;BME280;2697;42.144;24.794;2024-03-08T11:40:46;155455.94;;;11.20;100.00
5350;BME280;2697;42.144;24.794;2024-03-08T11:43:16;155525.78;;;11.47;100.00
5350;BME280;2697;42.144;24.794;2024-03-08T11:45:41;155556.06;;;11.59;100.00
5350;BME280;2697;42.144;24.794;2024-03-08T11:48:07;155702.44;;;12.15;100.00
5350;BME280;2697;42.144;24.794;2024-03-08T11:50:32;155834.31;;;12.66;100.00
5350;BME280;2697;42.144;24.794;2024-03-08T11:53:02;155589.00;;;11.71;100.00
5350;BME280;2697;42.144;24.794;2024-03-08T11:55:29;155536.28;;;11.51;100.00
5350;BME280;2697;42.144;24.794;2024-03-08T11:58:02;155625.97;;;11.86;100.00
5350;BME280;2697;42.144;24.794;2024-03-08T12:00:27;155549.50;;;11.56;100.00
5350;BME280;2697;42.144;24.794;2024-03-08T12:03:09;155419.03;;;11.06;100.00
5350;BME280;2697;42.144;24.794;2024-03-08T12:05:35;155404.56;;;11.00;100.00
5350;BME280;2697;42.144;24.794;2024-03-08T12:08:01;155457.25;;;11.21;100.00
5350;BME280;2697;42.144;24.794;2024-03-08T12:10:27;155203.06;;;10.22;100.00
5350;BME280;2697;42.144;24.794;2024-03-08T12:12:55;155241.25;;;10.37;100.00
5350;BME280;2697;42.144;24.794;2024-03-08T12:15:24;155264.97;;;10.46;100.00
5350;BME280;2697;42.144;24.794;2024-03-08T12:17:53;155321.56;;;10.68;100.00
5350;BME280;2697;42.144;24.794;2024-03-08T12:20:21;155407.19;;;11.01;100.00
5350;BME280;2697;42.144;24.794;2024-03-08T12:22:48;155261.03;;;10.45;100.00
5350;BME280;2697;42.144;24.794;2024-03-08T12:25:14;155333.44;;;10.73;100.00
5350;BME280;2697;42.144;24.794;2024-03-08T12:27:42;155388.75;;;10.94;100.00
5350;BME280;2697;42.144;24.794;2024-03-08T12:30:27;155407.19;;;11.01;100.00
5350;BME280;2697;42.144;24.794;2024-03-08T12:33:00;155444.06;;;11.16;100.00
5350;BME280;2697;42.144;24.794;2024-03-08T12:35:29;155386.13;;;10.93;100.00
5350;BME280;2697;42.144;24.794;2024-03-08T12:37:56;155515.19;;;11.43;100.00
5350;BME280;2697;42.144;24.794;2024-03-08T12:40:27;155426.97;;;11.09;100.00
5350;BME280;2697;42.144;24.794;2024-03-08T12:42:54;155446.69;;;11.17;100.00
5350;BME280;2697;42.144;24.794;2024-03-08T12:45:20;155470.41;;;11.26;100.00
5350;BME280;2697;42.144;24.794;2024-03-08T12:47:47;155674.75;;;12.05;100.00
5350;BME280;2697;42.144;24.794;2024-03-08T12:50:13;155540.25;;;11.53;100.00
5350;BME280;2697;42.144;24.794;2024-03-08T12:52:38;155757.78;;;12.37;100.00
5350;BME280;2697;42.144;24.794;2024-03-08T12:55:04;155761.78;;;12.38;100.00
5350;BME280;2697;42.144;24.794;2024-03-08T12:57:33;155578.47;;;11.67;100.00
5350;BME280;2697;42.144;24.794;2024-03-08T12:59:59;155629.91;;;11.87;100.00
5350;BME280;2697;42.144;24.794;2024-03-08T13:02:25;155673.44;;;12.04;100.00
5350;BME280;2697;42.144;24.794;2024-03-08T13:04:51;155640.50;;;11.91;100.00
5350;BME280;2697;42.144;24.794;2024-03-08T13:07:22;155632.56;;;11.88;100.00
5350;BME280;2697;42.144;24.794;2024-03-08T13:09:54;155645.75;;;11.93;100.00
5350;BME280;2697;42.144;24.794;2024-03-08T13:12:23;155742.00;;;12.31;100.00